createdAt,value
2023-03-16T00:00:14.035Z,18.70
2023-03-16T00:02:42.283Z,21.70
2023-03-16T00:05:11.264Z,24.00
2023-03-16T00:07:39.512Z,19.90
2023-03-16T00:10:08.323Z,19.60
2023-03-16T00:12:36.890Z,19.90
2023-03-16T00:15:06.593Z,20.20
2023-03-16T00:17:35.119Z,20.30
2023-03-16T00:20:09.896Z,22.40
2023-03-16T00:22:38.709Z,18.70
2023-03-16T00:25:07.475Z,18.50
2023-03-16T00:27:35.818Z,16.60
2023-03-16T00:30:05.071Z,17.30
2023-03-16T00:32:36.737Z,16.80
2023-03-16T00:35:50.748Z,17.00
2023-03-16T00:38:22.844Z,18.70
2023-03-16T00:40:51.439Z,21.30
2023-03-16T00:43:19.466Z,19.50
2023-03-16T00:45:47.499Z,16.00
2023-03-16T00:48:16.605Z,17.50
2023-03-16T00:50:45.615Z,59.00
2023-03-16T00:53:13.647Z,16.80
2023-03-16T00:55:41.672Z,19.70
2023-03-16T00:58:15.093Z,18.10
2023-03-16T01:00:43.487Z,27.10
2023-03-16T01:06:00.129Z,19.50
2023-03-16T01:08:28.159Z,14.90
2023-03-16T01:10:56.487Z,19.80
2023-03-16T01:13:26.229Z,13.10
2023-03-16T01:15:54.239Z,18.90
2023-03-16T01:18:22.522Z,17.00
2023-03-16T01:20:51.185Z,17.80
2023-03-16T01:23:22.205Z,16.50
2023-03-16T01:25:54.252Z,18.80
2023-03-16T01:28:25.729Z,15.00
2023-03-16T01:30:57.623Z,17.60
2023-03-16T01:38:16.617Z,19.10
2023-03-16T01:40:45.059Z,20.30
2023-03-16T01:43:14.053Z,18.10
2023-03-16T01:46:05.985Z,22.70
2023-03-16T01:48:58.730Z,18.00
2023-03-16T01:51:44.448Z,21.00
2023-03-16T01:54:22.292Z,20.90
2023-03-16T01:57:06.371Z,19.60
2023-03-16T01:59:48.091Z,24.60
2023-03-16T02:02:19.134Z,19.10
2023-03-16T02:05:02.231Z,23.20
2023-03-16T02:07:36.394Z,23.60
2023-03-16T02:10:05.420Z,24.50
2023-03-16T02:12:35.240Z,23.90
2023-03-16T02:15:05.051Z,21.20
2023-03-16T02:17:34.338Z,22.30
2023-03-16T02:20:30.917Z,23.20
2023-03-16T02:22:58.967Z,24.10
2023-03-16T02:25:42.769Z,21.70
2023-03-16T02:28:36.105Z,22.30
2023-03-16T02:31:05.052Z,30.90
2023-03-16T02:33:35.032Z,24.40
2023-03-16T02:36:03.826Z,25.00
2023-03-16T02:38:31.968Z,21.80
2023-03-16T02:41:07.053Z,23.40
2023-03-16T02:43:43.080Z,20.80
2023-03-16T02:46:23.505Z,23.60
2023-03-16T02:49:00.431Z,24.30
2023-03-16T02:51:29.362Z,28.30
2023-03-16T02:53:57.636Z,25.00
2023-03-16T02:56:27.692Z,29.90
2023-03-16T02:58:57.486Z,25.50
2023-03-16T03:01:34.974Z,25.40
2023-03-16T03:04:04.060Z,28.20
2023-03-16T03:06:33.489Z,23.20
2023-03-16T03:09:03.967Z,29.30
2023-03-16T03:11:32.206Z,27.10
2023-03-16T03:14:01.247Z,26.30
2023-03-16T03:16:29.551Z,28.70
2023-03-16T03:18:58.789Z,24.20
2023-03-16T03:21:30.532Z,25.20
2023-03-16T03:23:58.656Z,29.20
2023-03-16T03:26:27.152Z,29.70
2023-03-16T03:28:55.939Z,35.20
2023-03-16T03:31:24.116Z,38.70
2023-03-16T03:33:53.767Z,34.00
2023-03-16T03:36:22.874Z,30.10
2023-03-16T03:38:51.429Z,35.20
2023-03-16T03:41:22.657Z,39.50
2023-03-16T03:43:51.016Z,37.00
2023-03-16T03:46:19.357Z,34.90
2023-03-16T03:48:48.570Z,32.60
2023-03-16T03:51:16.766Z,38.30
2023-03-16T03:53:56.864Z,33.20
2023-03-16T03:56:39.755Z,34.60
2023-03-16T03:59:12.246Z,29.80
2023-03-16T04:01:59.679Z,32.50
2023-03-16T04:04:35.546Z,36.70
2023-03-16T04:07:04.125Z,34.60
2023-03-16T04:09:36.535Z,30.40
2023-03-16T04:12:06.068Z,34.40
2023-03-16T04:14:35.736Z,35.50
2023-03-16T04:17:06.246Z,31.80
2023-03-16T04:19:35.542Z,33.70
2023-03-16T04:22:04.837Z,46.70
2023-03-16T04:24:34.570Z,34.80
2023-03-16T04:27:03.113Z,37.20
2023-03-16T04:29:32.042Z,35.50
2023-03-16T04:32:00.714Z,31.70
2023-03-16T04:34:29.728Z,30.60
2023-03-16T04:36:59.619Z,38.50
2023-03-16T04:39:28.086Z,36.40
2023-03-16T04:41:56.316Z,37.70
2023-03-16T04:44:26.084Z,34.00
2023-03-16T04:46:54.681Z,31.30
2023-03-16T04:49:24.961Z,33.30
2023-03-16T04:51:53.095Z,31.50
2023-03-16T04:54:21.515Z,33.90
2023-03-16T04:56:49.869Z,37.90
2023-03-16T04:59:27.774Z,44.30
2023-03-16T05:02:04.128Z,39.50
2023-03-16T05:04:34.612Z,43.90
2023-03-16T05:07:08.463Z,51.50
2023-03-16T05:09:38.560Z,47.10
2023-03-16T05:12:08.456Z,44.40
2023-03-16T05:14:41.578Z,53.70
2023-03-16T05:17:33.061Z,44.60
2023-03-16T05:20:01.123Z,50.70
2023-03-16T05:22:29.977Z,42.40
2023-03-16T05:25:08.756Z,45.60
2023-03-16T05:27:45.909Z,52.90
2023-03-16T05:30:16.497Z,50.40
2023-03-16T05:32:45.928Z,45.10
2023-03-16T05:35:24.265Z,43.70
2023-03-16T05:37:53.587Z,42.70
2023-03-16T05:40:23.326Z,48.70
2023-03-16T05:43:02.208Z,43.90
2023-03-16T05:45:34.339Z,50.40
2023-03-16T05:48:09.047Z,47.80
2023-03-16T05:50:43.802Z,44.00
2023-03-16T05:53:14.073Z,42.30
2023-03-16T05:55:42.477Z,38.50
2023-03-16T05:58:12.333Z,38.30
2023-03-16T06:00:42.046Z,36.50
2023-03-16T06:03:19.331Z,34.60
2023-03-16T06:05:47.432Z,34.70
2023-03-16T06:08:17.562Z,36.70
2023-03-16T06:10:51.458Z,32.60
2023-03-16T06:13:23.153Z,37.30
2023-03-16T06:15:51.325Z,30.10
2023-03-16T06:18:21.454Z,31.60
2023-03-16T06:20:50.192Z,32.10
2023-03-16T06:23:20.319Z,32.80
2023-03-16T06:25:49.339Z,31.60
2023-03-16T06:28:18.011Z,36.00
2023-03-16T06:30:47.451Z,33.00
2023-03-16T06:33:15.500Z,36.20
2023-03-16T06:35:43.724Z,34.70
2023-03-16T06:38:17.822Z,37.10
2023-03-16T06:40:55.747Z,33.10
2023-03-16T06:43:24.423Z,33.40
2023-03-16T06:45:53.429Z,36.30
2023-03-16T06:48:21.840Z,28.00
2023-03-16T06:50:50.461Z,33.00
2023-03-16T06:53:22.692Z,32.30
2023-03-16T06:55:52.882Z,35.10
2023-03-16T06:58:21.894Z,32.00
2023-03-16T07:00:55.951Z,26.40
2023-03-16T07:03:25.070Z,29.50
2023-03-16T07:05:57.009Z,33.00
2023-03-16T07:08:25.884Z,32.00
2023-03-16T07:10:54.645Z,30.40
2023-03-16T07:13:22.658Z,27.00
2023-03-16T07:15:52.227Z,27.60
2023-03-16T07:18:21.056Z,27.60
2023-03-16T07:20:49.512Z,28.80
2023-03-16T07:23:17.602Z,30.10
2023-03-16T07:25:46.072Z,30.10
2023-03-16T07:28:19.177Z,32.10
2023-03-16T07:31:02.596Z,28.60
2023-03-16T07:33:35.543Z,27.90
2023-03-16T07:36:10.697Z,32.10
2023-03-16T07:38:42.612Z,29.90
2023-03-16T07:41:14.083Z,27.60
2023-03-16T07:43:44.554Z,27.70
2023-03-16T07:46:13.913Z,33.00
2023-03-16T07:48:43.836Z,30.00
2023-03-16T07:51:13.158Z,29.10
2023-03-16T07:53:41.850Z,35.40
2023-03-16T07:58:45.725Z,27.30
2023-03-16T08:01:13.957Z,32.60
2023-03-16T08:03:42.857Z,34.60
2023-03-16T08:06:12.062Z,27.80
2023-03-16T08:08:40.883Z,31.70
2023-03-16T08:11:09.515Z,30.40
2023-03-16T08:13:54.477Z,36.30
2023-03-16T08:16:23.794Z,28.40
2023-03-16T08:18:52.525Z,30.90
2023-03-16T08:21:26.290Z,33.50
2023-03-16T08:23:55.620Z,29.80
2023-03-16T08:26:24.339Z,32.60
2023-03-16T08:28:56.296Z,30.60
2023-03-16T08:31:25.606Z,31.30
2023-03-16T08:34:18.023Z,33.00
2023-03-16T08:36:46.500Z,34.80
2023-03-16T08:39:15.807Z,32.10
2023-03-16T08:41:48.367Z,37.00
2023-03-16T08:44:29.943Z,27.70
2023-03-16T08:46:58.271Z,34.20
2023-03-16T08:49:27.463Z,32.70
2023-03-16T08:52:05.478Z,71.70
2023-03-16T08:54:34.517Z,50.60
2023-03-16T08:57:05.696Z,37.80
2023-03-16T08:59:33.798Z,33.30
2023-03-16T09:02:06.377Z,35.80
2023-03-16T09:04:35.242Z,35.20
2023-03-16T09:07:08.941Z,31.50
2023-03-16T09:09:39.893Z,35.50
2023-03-16T09:12:08.641Z,34.00
2023-03-16T09:14:38.532Z,36.40
2023-03-16T09:17:11.911Z,43.50
2023-03-16T09:19:51.241Z,36.00
2023-03-16T09:22:20.624Z,36.10
2023-03-16T09:24:49.723Z,37.40
2023-03-16T09:27:18.173Z,31.40
2023-03-16T09:29:49.591Z,32.40
2023-03-16T09:32:17.932Z,33.60
2023-03-16T09:34:46.166Z,36.80
2023-03-16T09:37:31.572Z,35.90
2023-03-16T09:40:19.294Z,33.70
2023-03-16T09:43:11.148Z,28.70
2023-03-16T09:45:46.800Z,31.40
2023-03-16T09:48:20.957Z,35.20
2023-03-16T09:50:53.348Z,30.90
2023-03-16T09:53:30.889Z,34.50
2023-03-16T09:56:08.508Z,30.00
2023-03-16T09:58:36.795Z,37.00
2023-03-16T10:01:21.056Z,31.20
2023-03-16T10:04:25.398Z,36.00
2023-03-16T10:07:16.458Z,31.00
2023-03-16T10:10:17.587Z,31.30
2023-03-16T10:12:50.456Z,30.90
2023-03-16T10:15:21.319Z,33.30
2023-03-16T10:18:03.199Z,33.50
2023-03-16T10:20:35.019Z,36.70
2023-03-16T10:23:14.841Z,31.50
2023-03-16T10:25:49.823Z,32.10
2023-03-16T10:28:23.790Z,33.20
2023-03-16T10:30:53.705Z,33.40
2023-03-16T10:33:27.786Z,35.70
2023-03-16T10:35:58.542Z,33.10
2023-03-16T10:38:40.014Z,35.10
2023-03-16T10:41:21.504Z,33.90
2023-03-16T10:44:06.334Z,29.70
2023-03-16T10:46:54.190Z,30.70
2023-03-16T10:49:41.752Z,32.80
2023-03-16T10:52:39.979Z,24.70
2023-03-16T10:55:11.071Z,31.80
2023-03-16T10:57:42.394Z,30.10
2023-03-16T11:00:16.951Z,31.40
2023-03-16T11:02:45.853Z,26.90
2023-03-16T11:05:28.617Z,28.00
2023-03-16T11:08:12.195Z,33.30
2023-03-16T11:10:56.127Z,28.30
2023-03-16T11:13:38.752Z,26.60
2023-03-16T11:16:21.554Z,26.50
2023-03-16T11:19:26.183Z,30.50
2023-03-16T11:21:57.742Z,26.20
2023-03-16T11:24:42.921Z,27.00
2023-03-16T11:27:25.187Z,22.80
2023-03-16T11:30:22.457Z,26.60
2023-03-16T11:32:54.052Z,32.90
2023-03-16T11:35:38.421Z,27.10
2023-03-16T11:38:16.909Z,30.40
2023-03-16T11:41:10.666Z,28.80
2023-03-16T11:43:50.275Z,28.30
2023-03-16T11:46:28.633Z,24.00
2023-03-16T11:49:12.148Z,25.50
2023-03-16T11:51:44.922Z,23.30
2023-03-16T11:54:20.062Z,26.80
2023-03-16T11:56:51.214Z,27.40
2023-03-16T11:59:46.261Z,25.70
2023-03-16T12:02:45.322Z,25.30
2023-03-16T12:05:23.387Z,25.90
2023-03-16T12:08:32.936Z,25.90
2023-03-16T12:11:31.255Z,26.90
2023-03-16T12:14:15.660Z,24.20
2023-03-16T12:19:24.949Z,23.70
2023-03-16T12:22:07.848Z,27.50
2023-03-16T12:24:43.780Z,28.20
2023-03-16T12:27:16.238Z,26.60
2023-03-16T12:30:03.924Z,31.80
2023-03-16T12:32:39.489Z,29.80
2023-03-16T12:35:34.142Z,24.40
2023-03-16T12:38:28.798Z,27.50
2023-03-16T12:41:18.010Z,26.40
2023-03-16T12:43:51.616Z,24.40
2023-03-16T12:46:53.584Z,27.60
2023-03-16T12:49:23.923Z,26.90
2023-03-16T12:52:03.011Z,26.60
2023-03-16T12:54:31.348Z,31.70
2023-03-16T12:57:06.946Z,25.80
2023-03-16T12:59:43.720Z,28.40
2023-03-16T13:02:19.584Z,26.60
2023-03-16T13:04:51.839Z,31.50
2023-03-16T13:07:22.837Z,29.30
2023-03-16T13:10:00.681Z,26.40
2023-03-16T13:12:32.984Z,25.50
2023-03-16T13:15:02.208Z,29.10
2023-03-16T13:17:32.285Z,27.00
2023-03-16T13:20:00.943Z,29.30
2023-03-16T13:22:32.344Z,26.90
2023-03-16T13:25:18.826Z,31.50
2023-03-16T13:27:47.553Z,30.40
2023-03-16T13:30:21.572Z,32.90
2023-03-16T13:33:17.659Z,24.00
2023-03-16T13:35:46.256Z,28.00
2023-03-16T13:38:16.383Z,32.50
2023-03-16T13:40:49.141Z,32.20
2023-03-16T13:43:18.851Z,30.00
2023-03-16T13:45:47.296Z,30.50
2023-03-16T13:48:16.378Z,27.20
2023-03-16T13:50:44.754Z,30.80
2023-03-16T13:55:23.147Z,23.80
2023-03-16T13:57:49.949Z,26.30
2023-03-16T14:00:27.912Z,26.80
2023-03-16T14:02:56.590Z,25.80
2023-03-16T14:05:29.882Z,25.70
2023-03-16T14:07:59.950Z,22.00
2023-03-16T14:10:32.602Z,23.00
2023-03-16T14:13:08.579Z,24.20
2023-03-16T14:15:36.814Z,23.90
2023-03-16T14:18:15.774Z,21.20
2023-03-16T14:20:46.992Z,18.80
2023-03-16T14:23:29.988Z,17.70
2023-03-16T14:26:00.089Z,18.50
2023-03-16T14:28:32.118Z,20.50
2023-03-16T14:31:20.282Z,18.70
2023-03-16T14:33:48.391Z,15.00
2023-03-16T14:36:17.023Z,17.50
2023-03-16T14:38:48.137Z,18.10
2023-03-16T14:41:21.052Z,17.90
2023-03-16T14:43:58.509Z,19.60
2023-03-16T14:46:28.748Z,15.30
2023-03-16T14:49:08.209Z,17.20
2023-03-16T14:51:39.523Z,16.10
2023-03-16T14:54:11.712Z,14.20
2023-03-16T14:56:38.458Z,16.90
2023-03-16T14:59:06.303Z,13.30
2023-03-16T15:01:33.348Z,16.00
2023-03-16T15:04:08.823Z,16.30
2023-03-16T15:06:35.924Z,14.30
2023-03-16T15:09:02.756Z,11.90
2023-03-16T15:11:33.572Z,18.00
2023-03-16T15:14:14.332Z,13.90
2023-03-16T15:16:43.847Z,12.80
2023-03-16T15:19:10.465Z,16.50
2023-03-16T15:21:37.401Z,16.50
2023-03-16T15:24:10.515Z,13.80
2023-03-16T15:26:37.310Z,16.10
2023-03-16T15:29:05.792Z,14.50
2023-03-16T15:31:33.303Z,16.80
2023-03-16T15:34:00.342Z,13.50
2023-03-16T15:36:26.878Z,17.00
2023-03-16T15:38:54.339Z,18.50
2023-03-16T15:41:21.379Z,16.40
2023-03-16T15:43:52.330Z,13.80
2023-03-16T15:46:20.225Z,15.10
2023-03-16T15:48:47.116Z,15.90
2023-03-16T15:51:27.113Z,15.60
2023-03-16T15:53:56.367Z,16.50
2023-03-16T15:56:29.080Z,16.60
2023-03-16T15:58:59.913Z,18.20
2023-03-16T16:01:30.612Z,16.50
2023-03-16T16:03:58.432Z,20.70
2023-03-16T16:06:26.801Z,15.00
2023-03-16T16:08:53.727Z,16.30
2023-03-16T16:11:25.684Z,15.40
2023-03-16T16:13:56.963Z,19.00
2023-03-16T16:16:25.734Z,18.00
2023-03-16T16:18:52.429Z,16.60
2023-03-16T16:21:26.177Z,15.60
2023-03-16T16:23:53.341Z,15.30
2023-03-16T16:26:41.613Z,20.30
2023-03-16T16:29:17.200Z,18.20
2023-03-16T16:31:44.019Z,18.60
2023-03-16T16:34:12.331Z,18.70
2023-03-16T16:36:39.145Z,17.50
2023-03-16T16:39:07.719Z,16.70
2023-03-16T16:41:38.335Z,15.30
2023-03-16T16:44:07.752Z,14.60
2023-03-16T16:46:41.849Z,17.30
2023-03-16T16:49:18.856Z,19.30
2023-03-16T16:51:45.628Z,16.40
2023-03-16T16:54:18.871Z,14.80
2023-03-16T16:56:46.127Z,14.80
2023-03-16T16:59:26.595Z,17.60
2023-03-16T17:01:53.478Z,15.00
2023-03-16T17:04:24.982Z,15.90
2023-03-16T17:06:54.848Z,17.20
2023-03-16T17:09:26.527Z,15.30
2023-03-16T17:11:55.576Z,14.80
2023-03-16T17:14:23.440Z,20.10
2023-03-16T17:16:52.783Z,14.80
2023-03-16T17:19:27.353Z,17.30
2023-03-16T17:21:55.440Z,16.00
2023-03-16T17:24:29.128Z,19.40
2023-03-16T17:26:58.161Z,14.70
2023-03-16T17:29:30.869Z,14.30
2023-03-16T17:32:04.151Z,14.80
2023-03-16T17:34:32.012Z,16.20
2023-03-16T17:39:34.814Z,12.60
2023-03-16T17:42:02.713Z,18.60
2023-03-16T17:44:35.615Z,13.40
2023-03-16T17:47:02.488Z,16.10
2023-03-16T17:49:31.028Z,15.00
2023-03-16T17:52:00.576Z,14.60
2023-03-16T17:54:27.742Z,14.90
2023-03-16T17:56:54.511Z,15.60
2023-03-16T17:59:21.498Z,16.80
2023-03-16T18:01:50.936Z,13.00
2023-03-16T18:04:23.377Z,14.10
2023-03-16T18:06:50.574Z,11.70
2023-03-16T18:09:18.183Z,13.00
2023-03-16T18:11:47.867Z,18.00
2023-03-16T18:14:39.240Z,15.00
2023-03-16T18:17:12.732Z,12.40
2023-03-16T18:19:39.693Z,16.40
2023-03-16T18:22:15.078Z,14.30
2023-03-16T18:24:42.443Z,15.90
2023-03-16T18:27:11.388Z,11.80
2023-03-16T18:29:38.659Z,12.20
2023-03-16T18:32:06.413Z,11.60
2023-03-16T18:34:35.530Z,12.00
2023-03-16T18:37:05.551Z,13.90
2023-03-16T18:39:34.061Z,12.70
2023-03-16T18:42:02.432Z,13.30
2023-03-16T18:44:29.886Z,10.50
2023-03-16T18:47:00.384Z,10.40
2023-03-16T18:49:35.014Z,9.60
2023-03-16T18:52:03.153Z,10.20
2023-03-16T18:54:31.825Z,12.10
2023-03-16T18:56:59.192Z,12.40
2023-03-16T18:59:26.771Z,11.90
2023-03-16T19:01:53.519Z,11.40
2023-03-16T19:04:25.224Z,10.20
2023-03-16T19:06:53.358Z,9.20
2023-03-16T19:09:27.221Z,10.40
2023-03-16T19:11:55.534Z,10.60
2023-03-16T19:14:27.582Z,10.80
2023-03-16T19:16:55.850Z,11.20
2023-03-16T19:19:23.739Z,10.10
2023-03-16T19:21:55.808Z,10.40
2023-03-16T19:24:30.610Z,10.40
2023-03-16T19:26:59.139Z,8.90
2023-03-16T19:29:31.330Z,9.90
2023-03-16T19:31:58.974Z,8.20
2023-03-16T19:34:26.615Z,8.10
2023-03-16T19:36:53.824Z,9.60
2023-03-16T19:39:20.891Z,9.70
2023-03-16T19:41:56.057Z,8.00
2023-03-16T19:44:24.720Z,7.20
2023-03-16T19:46:51.259Z,8.80
2023-03-16T19:49:19.641Z,9.80
2023-03-16T19:51:47.248Z,9.00
2023-03-16T19:54:19.710Z,8.70
2023-03-16T19:56:46.578Z,7.60
2023-03-16T19:59:14.870Z,8.00
2023-03-16T20:01:42.362Z,7.80
2023-03-16T20:04:14.232Z,6.60
2023-03-16T20:06:43.700Z,8.10
2023-03-16T20:09:10.985Z,10.60
2023-03-16T20:11:37.912Z,7.70
2023-03-16T20:14:28.434Z,6.20
2023-03-16T20:16:55.525Z,7.40
2023-03-16T20:19:22.603Z,6.30
2023-03-16T20:21:49.780Z,6.10
2023-03-16T20:24:20.169Z,8.80
2023-03-16T20:26:51.457Z,8.50
2023-03-16T20:29:28.478Z,6.90
2023-03-16T20:31:55.636Z,8.20
2023-03-16T20:34:25.106Z,6.50
2023-03-16T20:36:51.991Z,6.00
2023-03-16T20:39:18.784Z,8.20
2023-03-16T20:41:46.193Z,7.00
2023-03-16T20:44:14.613Z,6.90
2023-03-16T20:46:44.022Z,3.90
2023-03-16T20:49:24.514Z,4.00
2023-03-16T20:51:51.566Z,3.70
2023-03-16T20:54:18.521Z,4.10
2023-03-16T20:56:45.324Z,4.50
2023-03-16T20:59:22.272Z,5.10
2023-03-16T21:01:49.571Z,5.10
2023-03-16T21:04:26.374Z,3.90
2023-03-16T21:06:53.426Z,3.60
2023-03-16T21:09:20.583Z,4.40
2023-03-16T21:11:47.377Z,5.10
2023-03-16T21:14:21.431Z,3.10
2023-03-16T21:16:47.994Z,4.00
2023-03-16T21:19:20.330Z,2.90
2023-03-16T21:21:46.979Z,3.70
2023-03-16T21:24:19.619Z,3.30
2023-03-16T21:26:46.928Z,3.90
2023-03-16T21:29:15.845Z,4.00
2023-03-16T21:31:45.672Z,5.00
2023-03-16T21:34:23.637Z,4.30
2023-03-16T21:36:55.692Z,5.60
2023-03-16T21:39:24.394Z,6.20
2023-03-16T21:41:51.198Z,4.40
2023-03-16T21:44:19.230Z,3.50
2023-03-16T21:46:46.823Z,3.50
2023-03-16T21:49:19.214Z,3.70
2023-03-16T21:51:45.998Z,3.10
2023-03-16T21:54:16.284Z,5.10
2023-03-16T21:56:43.411Z,4.60
2023-03-16T21:59:10.612Z,4.80
2023-03-16T22:01:54.652Z,4.10
2023-03-16T22:04:27.415Z,2.80
2023-03-16T22:06:54.680Z,5.20
2023-03-16T22:09:24.215Z,3.80
2023-03-16T22:11:51.225Z,5.60
2023-03-16T22:14:17.868Z,3.80
2023-03-16T22:16:45.224Z,3.70
2023-03-16T22:19:13.865Z,2.30
2023-03-16T22:21:47.302Z,2.80
2023-03-16T22:24:20.405Z,3.00
2023-03-16T22:26:48.514Z,3.60
2023-03-16T22:29:23.615Z,4.00
2023-03-16T22:31:53.155Z,4.50
2023-03-16T22:34:47.678Z,4.70
2023-03-16T22:37:17.531Z,2.80
2023-03-16T22:39:44.652Z,2.20
2023-03-16T22:42:36.454Z,4.00
2023-03-16T22:45:21.132Z,3.40
2023-03-16T22:47:49.334Z,4.00
2023-03-16T22:50:17.303Z,3.80
2023-03-16T22:52:45.065Z,3.70
2023-03-16T22:55:17.759Z,2.60
2023-03-16T22:57:44.962Z,2.60
2023-03-16T23:00:13.567Z,4.00
2023-03-16T23:02:42.106Z,4.00
2023-03-16T23:05:23.976Z,2.70
2023-03-16T23:07:51.419Z,3.50
2023-03-16T23:10:22.928Z,4.50
2023-03-16T23:12:49.895Z,3.00
2023-03-16T23:15:23.268Z,2.60
2023-03-16T23:17:50.516Z,3.40
2023-03-16T23:20:24.480Z,4.30
2023-03-16T23:22:52.292Z,2.60
2023-03-16T23:25:21.719Z,6.00
2023-03-16T23:27:51.076Z,3.90
2023-03-16T23:30:23.452Z,3.20
2023-03-16T23:32:53.601Z,7.30
2023-03-16T23:35:22.899Z,3.70
2023-03-16T23:37:51.808Z,6.70
2023-03-16T23:40:20.994Z,2.90
2023-03-16T23:42:48.039Z,2.40
2023-03-16T23:45:33.273Z,3.70
2023-03-16T23:48:02.130Z,2.00
2023-03-16T23:50:33.664Z,3.20
2023-03-16T23:53:01.430Z,6.50
2023-03-16T23:55:34.236Z,4.40
2023-03-16T23:58:01.352Z,3.90
